sensor_id;sensor_type;location;lat;lon;timestamp;temperature;humidity
18733;DHT22;9495;51.210;2.934;2023-02-15T00:00:39;4.10;99.90
18733;DHT22;9495;51.210;2.934;2023-02-15T00:03:08;4.20;99.90
18733;DHT22;9495;51.210;2.934;2023-02-15T00:05:37;4.10;99.90
18733;DHT22;9495;51.210;2.934;2023-02-15T00:08:05;4.30;99.90
18733;DHT22;9495;51.210;2.934;2023-02-15T00:10:34;4.50;99.90
18733;DHT22;9495;51.210;2.934;2023-02-15T00:13:02;4.30;99.90
18733;DHT22;9495;51.210;2.934;2023-02-15T00:15:31;4.20;99.90
18733;DHT22;9495;51.210;2.934;2023-02-15T00:17:59;4.10;99.90
18733;DHT22;9495;51.210;2.934;2023-02-15T00:20:29;4.20;99.90
18733;DHT22;9495;51.210;2.934;2023-02-15T00:22:58;4.00;99.90
18733;DHT22;9495;51.210;2.934;2023-02-15T00:25:26;4.00;99.90
18733;DHT22;9495;51.210;2.934;2023-02-15T00:27:55;4.10;99.90
18733;DHT22;9495;51.210;2.934;2023-02-15T00:30:23;3.90;99.90
18733;DHT22;9495;51.210;2.934;2023-02-15T00:32:51;4.00;99.90
18733;DHT22;9495;51.210;2.934;2023-02-15T00:35:20;4.10;99.90
18733;DHT22;9495;51.210;2.934;2023-02-15T00:37:50;4.20;99.90
18733;DHT22;9495;51.210;2.934;2023-02-15T00:40:19;4.30;99.90
18733;DHT22;9495;51.210;2.934;2023-02-15T00:42:47;4.30;99.90
18733;DHT22;9495;51.210;2.934;2023-02-15T00:45:16;4.30;99.90
18733;DHT22;9495;51.210;2.934;2023-02-15T00:47:44;4.10;99.90
18733;DHT22;9495;51.210;2.934;2023-02-15T00:50:13;4.00;99.90
18733;DHT22;9495;51.210;2.934;2023-02-15T00:52:41;4.20;99.90
18733;DHT22;9495;51.210;2.934;2023-02-15T00:55:11;4.10;99.90
18733;DHT22;9495;51.210;2.934;2023-02-15T00:57:39;4.20;99.90
18733;DHT22;9495;51.210;2.934;2023-02-15T01:00:09;4.00;99.90
18733;DHT22;9495;51.210;2.934;2023-02-15T01:02:37;3.90;99.90
18733;DHT22;9495;51.210;2.934;2023-02-15T01:05:06;4.00;99.90
18733;DHT22;9495;51.210;2.934;2023-02-15T01:07:34;3.90;99.90
18733;DHT22;9495;51.210;2.934;2023-02-15T01:10:03;3.90;99.90
18733;DHT22;9495;51.210;2.934;2023-02-15T01:12:33;3.70;99.90
18733;DHT22;9495;51.210;2.934;2023-02-15T01:15:02;3.70;99.90
18733;DHT22;9495;51.210;2.934;2023-02-15T01:17:31;3.90;99.90
18733;DHT22;9495;51.210;2.934;2023-02-15T01:19:59;3.80;99.90
18733;DHT22;9495;51.210;2.934;2023-02-15T01:22:28;3.90;99.90
18733;DHT22;9495;51.210;2.934;2023-02-15T01:24:56;3.70;99.90
18733;DHT22;9495;51.210;2.934;2023-02-15T01:27:25;3.70;99.90
18733;DHT22;9495;51.210;2.934;2023-02-15T01:29:54;3.70;99.90
18733;DHT22;9495;51.210;2.934;2023-02-15T01:32:23;3.70;99.90
18733;DHT22;9495;51.210;2.934;2023-02-15T01:34:51;3.70;99.90
18733;DHT22;9495;51.210;2.934;2023-02-15T01:37:20;3.70;99.90
18733;DHT22;9495;51.210;2.934;2023-02-15T01:39:49;3.60;99.90
18733;DHT22;9495;51.210;2.934;2023-02-15T01:42:21;3.60;99.90
18733;DHT22;9495;51.210;2.934;2023-02-15T01:44:54;3.70;99.90
18733;DHT22;9495;51.210;2.934;2023-02-15T01:47:29;3.60;99.90
18733;DHT22;9495;51.210;2.934;2023-02-15T01:50:04;3.60;99.90
18733;DHT22;9495;51.210;2.934;2023-02-15T01:52:35;3.70;99.90
18733;DHT22;9495;51.210;2.934;2023-02-15T01:55:05;3.40;99.90
18733;DHT22;9495;51.210;2.934;2023-02-15T01:57:35;3.50;99.90
18733;DHT22;9495;51.210;2.934;2023-02-15T02:00:06;3.50;99.90
18733;DHT22;9495;51.210;2.934;2023-02-15T02:02:36;3.50;99.90
18733;DHT22;9495;51.210;2.934;2023-02-15T02:05:05;3.50;99.90
18733;DHT22;9495;51.210;2.934;2023-02-15T02:07:37;3.30;99.90
18733;DHT22;9495;51.210;2.934;2023-02-15T02:10:08;3.40;99.90
18733;DHT22;9495;51.210;2.934;2023-02-15T02:12:37;3.40;99.90
18733;DHT22;9495;51.210;2.934;2023-02-15T02:15:07;3.30;99.90
18733;DHT22;9495;51.210;2.934;2023-02-15T02:17:43;3.30;99.90
18733;DHT22;9495;51.210;2.934;2023-02-15T02:20:28;3.30;99.90
18733;DHT22;9495;51.210;2.934;2023-02-15T02:23:16;3.30;99.90
18733;DHT22;9495;51.210;2.934;2023-02-15T02:30:02;3.10;99.90
18733;DHT22;9495;51.210;2.934;2023-02-15T02:32:53;3.00;99.90
18733;DHT22;9495;51.210;2.934;2023-02-15T02:35:32;3.20;99.90
18733;DHT22;9495;51.210;2.934;2023-02-15T02:38:10;3.20;99.90
18733;DHT22;9495;51.210;2.934;2023-02-15T02:40:45;3.20;99.90
18733;DHT22;9495;51.210;2.934;2023-02-15T02:43:21;3.30;99.90
18733;DHT22;9495;51.210;2.934;2023-02-15T02:45:58;3.20;99.90
18733;DHT22;9495;51.210;2.934;2023-02-15T02:48:32;3.10;99.90
18733;DHT22;9495;51.210;2.934;2023-02-15T02:51:01;3.10;99.90
18733;DHT22;9495;51.210;2.934;2023-02-15T02:53:30;3.00;99.90
18733;DHT22;9495;51.210;2.934;2023-02-15T02:56:04;3.00;99.90
18733;DHT22;9495;51.210;2.934;2023-02-15T02:58:37;3.00;99.90
18733;DHT22;9495;51.210;2.934;2023-02-15T03:01:10;3.00;99.90
18733;DHT22;9495;51.210;2.934;2023-02-15T03:03:45;3.00;99.90
18733;DHT22;9495;51.210;2.934;2023-02-15T03:06:18;3.00;99.90
18733;DHT22;9495;51.210;2.934;2023-02-15T03:08:50;3.10;99.90
18733;DHT22;9495;51.210;2.934;2023-02-15T03:11:19;3.00;99.90
18733;DHT22;9495;51.210;2.934;2023-02-15T03:13:48;2.90;99.90
18733;DHT22;9495;51.210;2.934;2023-02-15T03:16:18;2.90;99.90
18733;DHT22;9495;51.210;2.934;2023-02-15T03:19:02;2.90;99.90
18733;DHT22;9495;51.210;2.934;2023-02-15T03:21:35;3.00;99.90
18733;DHT22;9495;51.210;2.934;2023-02-15T03:24:08;3.10;99.90
18733;DHT22;9495;51.210;2.934;2023-02-15T03:26:39;3.10;99.90
18733;DHT22;9495;51.210;2.934;2023-02-15T03:29:09;3.00;99.90
18733;DHT22;9495;51.210;2.934;2023-02-15T03:31:41;2.90;99.90
18733;DHT22;9495;51.210;2.934;2023-02-15T03:34:13;2.90;99.90
18733;DHT22;9495;51.210;2.934;2023-02-15T03:36:47;2.90;99.90
18733;DHT22;9495;51.210;2.934;2023-02-15T03:39:20;3.00;99.90
18733;DHT22;9495;51.210;2.934;2023-02-15T03:41:57;2.90;99.90
18733;DHT22;9495;51.210;2.934;2023-02-15T03:44:29;3.10;99.90
18733;DHT22;9495;51.210;2.934;2023-02-15T03:47:03;3.30;99.90
18733;DHT22;9495;51.210;2.934;2023-02-15T03:49:41;3.40;99.90
18733;DHT22;9495;51.210;2.934;2023-02-15T03:52:11;3.40;99.90
18733;DHT22;9495;51.210;2.934;2023-02-15T03:54:43;3.30;99.90
18733;DHT22;9495;51.210;2.934;2023-02-15T03:57:16;3.10;99.90
18733;DHT22;9495;51.210;2.934;2023-02-15T04:00:05;3.10;99.90
18733;DHT22;9495;51.210;2.934;2023-02-15T04:05:44;2.90;99.90
18733;DHT22;9495;51.210;2.934;2023-02-15T04:08:13;2.90;99.90
18733;DHT22;9495;51.210;2.934;2023-02-15T04:10:41;2.90;99.90
18733;DHT22;9495;51.210;2.934;2023-02-15T04:13:23;2.90;99.90
18733;DHT22;9495;51.210;2.934;2023-02-15T04:15:54;2.70;99.90
18733;DHT22;9495;51.210;2.934;2023-02-15T04:18:34;2.70;99.90
18733;DHT22;9495;51.210;2.934;2023-02-15T04:21:22;2.70;99.90
18733;DHT22;9495;51.210;2.934;2023-02-15T04:24:09;2.70;99.90
18733;DHT22;9495;51.210;2.934;2023-02-15T04:26:55;2.70;99.90
18733;DHT22;9495;51.210;2.934;2023-02-15T04:29:24;2.70;99.90
18733;DHT22;9495;51.210;2.934;2023-02-15T04:31:56;2.60;99.90
18733;DHT22;9495;51.210;2.934;2023-02-15T04:34:24;2.70;99.90
18733;DHT22;9495;51.210;2.934;2023-02-15T04:36:54;2.80;99.90
18733;DHT22;9495;51.210;2.934;2023-02-15T04:39:23;2.80;99.90
18733;DHT22;9495;51.210;2.934;2023-02-15T04:41:51;2.70;99.90
18733;DHT22;9495;51.210;2.934;2023-02-15T04:44:20;2.70;99.90
18733;DHT22;9495;51.210;2.934;2023-02-15T04:46:48;2.60;99.90
18733;DHT22;9495;51.210;2.934;2023-02-15T04:49:17;2.70;99.90
18733;DHT22;9495;51.210;2.934;2023-02-15T04:51:45;2.80;99.90
18733;DHT22;9495;51.210;2.934;2023-02-15T04:54:15;3.00;99.90
18733;DHT22;9495;51.210;2.934;2023-02-15T04:56:43;2.90;99.90
18733;DHT22;9495;51.210;2.934;2023-02-15T04:59:12;3.00;99.90
18733;DHT22;9495;51.210;2.934;2023-02-15T05:01:41;3.00;99.90
18733;DHT22;9495;51.210;2.934;2023-02-15T05:04:09;3.00;99.90
18733;DHT22;9495;51.210;2.934;2023-02-15T05:06:38;3.00;99.90
18733;DHT22;9495;51.210;2.934;2023-02-15T05:09:07;3.10;99.90
18733;DHT22;9495;51.210;2.934;2023-02-15T05:11:36;3.10;99.90
18733;DHT22;9495;51.210;2.934;2023-02-15T05:14:05;3.10;99.90
18733;DHT22;9495;51.210;2.934;2023-02-15T05:16:33;3.30;99.90
18733;DHT22;9495;51.210;2.934;2023-02-15T05:19:02;3.30;99.90
18733;DHT22;9495;51.210;2.934;2023-02-15T05:21:31;3.30;99.90
18733;DHT22;9495;51.210;2.934;2023-02-15T05:24:00;3.40;99.90
18733;DHT22;9495;51.210;2.934;2023-02-15T05:26:50;3.30;99.90
18733;DHT22;9495;51.210;2.934;2023-02-15T05:29:36;3.10;99.90
18733;DHT22;9495;51.210;2.934;2023-02-15T05:32:04;3.10;99.90
18733;DHT22;9495;51.210;2.934;2023-02-15T05:34:33;3.10;99.90
18733;DHT22;9495;51.210;2.934;2023-02-15T05:37:01;3.20;99.90
18733;DHT22;9495;51.210;2.934;2023-02-15T05:39:30;3.20;99.90
18733;DHT22;9495;51.210;2.934;2023-02-15T05:42:00;3.10;99.90
18733;DHT22;9495;51.210;2.934;2023-02-15T05:44:28;3.10;99.90
18733;DHT22;9495;51.210;2.934;2023-02-15T05:46:57;3.10;99.90
18733;DHT22;9495;51.210;2.934;2023-02-15T05:49:25;3.10;99.90
18733;DHT22;9495;51.210;2.934;2023-02-15T05:51:54;3.20;99.90
18733;DHT22;9495;51.210;2.934;2023-02-15T05:54:22;3.30;99.90
18733;DHT22;9495;51.210;2.934;2023-02-15T05:56:51;3.30;99.90
18733;DHT22;9495;51.210;2.934;2023-02-15T05:59:20;3.30;99.90
18733;DHT22;9495;51.210;2.934;2023-02-15T06:01:48;3.20;99.90
18733;DHT22;9495;51.210;2.934;2023-02-15T06:04:17;3.20;99.90
18733;DHT22;9495;51.210;2.934;2023-02-15T06:06:45;3.30;99.90
18733;DHT22;9495;51.210;2.934;2023-02-15T06:09:13;3.30;99.90
18733;DHT22;9495;51.210;2.934;2023-02-15T06:11:45;3.30;99.90
18733;DHT22;9495;51.210;2.934;2023-02-15T06:14:13;3.30;99.90
18733;DHT22;9495;51.210;2.934;2023-02-15T06:16:43;3.30;99.90
18733;DHT22;9495;51.210;2.934;2023-02-15T06:19:12;3.30;99.90
18733;DHT22;9495;51.210;2.934;2023-02-15T06:21:40;3.30;99.90
18733;DHT22;9495;51.210;2.934;2023-02-15T06:24:09;3.30;99.90
18733;DHT22;9495;51.210;2.934;2023-02-15T06:26:37;3.30;99.90
18733;DHT22;9495;51.210;2.934;2023-02-15T06:29:06;3.30;99.90
18733;DHT22;9495;51.210;2.934;2023-02-15T06:31:34;3.30;99.90
18733;DHT22;9495;51.210;2.934;2023-02-15T06:34:04;3.40;99.90
18733;DHT22;9495;51.210;2.934;2023-02-15T06:36:33;3.40;99.90
18733;DHT22;9495;51.210;2.934;2023-02-15T06:39:01;3.40;99.90
18733;DHT22;9495;51.210;2.934;2023-02-15T06:41:30;3.40;99.90
18733;DHT22;9495;51.210;2.934;2023-02-15T06:43:58;3.40;99.90
18733;DHT22;9495;51.210;2.934;2023-02-15T06:46:27;3.20;99.90
18733;DHT22;9495;51.210;2.934;2023-02-15T06:48:56;3.20;99.90
18733;DHT22;9495;51.210;2.934;2023-02-15T06:51:26;3.20;99.90
18733;DHT22;9495;51.210;2.934;2023-02-15T06:53:54;3.30;99.90
18733;DHT22;9495;51.210;2.934;2023-02-15T06:56:23;3.30;99.90
18733;DHT22;9495;51.210;2.934;2023-02-15T06:58:51;3.20;99.90
18733;DHT22;9495;51.210;2.934;2023-02-15T07:01:20;3.30;99.90
18733;DHT22;9495;51.210;2.934;2023-02-15T07:03:49;3.30;99.90
18733;DHT22;9495;51.210;2.934;2023-02-15T07:06:17;3.40;99.90
18733;DHT22;9495;51.210;2.934;2023-02-15T07:08:47;3.40;99.90
18733;DHT22;9495;51.210;2.934;2023-02-15T07:11:15;3.40;99.90
18733;DHT22;9495;51.210;2.934;2023-02-15T07:14:01;3.30;99.90
18733;DHT22;9495;51.210;2.934;2023-02-15T07:16:30;3.30;99.90
18733;DHT22;9495;51.210;2.934;2023-02-15T07:18:58;3.40;99.90
18733;DHT22;9495;51.210;2.934;2023-02-15T07:21:27;3.40;99.90
18733;DHT22;9495;51.210;2.934;2023-02-15T07:23:58;3.40;99.90
18733;DHT22;9495;51.210;2.934;2023-02-15T07:26:26;3.40;99.90
18733;DHT22;9495;51.210;2.934;2023-02-15T07:28:55;3.40;99.90
18733;DHT22;9495;51.210;2.934;2023-02-15T07:31:23;3.40;99.90
18733;DHT22;9495;51.210;2.934;2023-02-15T07:33:52;3.40;99.90
18733;DHT22;9495;51.210;2.934;2023-02-15T07:36:20;3.40;99.90
18733;DHT22;9495;51.210;2.934;2023-02-15T07:38:49;3.40;99.90
18733;DHT22;9495;51.210;2.934;2023-02-15T07:41:19;3.40;99.90
18733;DHT22;9495;51.210;2.934;2023-02-15T07:43:47;3.40;99.90
18733;DHT22;9495;51.210;2.934;2023-02-15T07:46:16;3.40;99.90
18733;DHT22;9495;51.210;2.934;2023-02-15T07:48:46;3.40;99.90
18733;DHT22;9495;51.210;2.934;2023-02-15T07:51:15;3.40;99.90
18733;DHT22;9495;51.210;2.934;2023-02-15T07:53:43;3.60;99.90
18733;DHT22;9495;51.210;2.934;2023-02-15T07:56:13;3.60;99.90
18733;DHT22;9495;51.210;2.934;2023-02-15T07:58:42;3.60;99.90
18733;DHT22;9495;51.210;2.934;2023-02-15T08:01:22;3.60;99.90
18733;DHT22;9495;51.210;2.934;2023-02-15T08:03:51;3.70;99.90
18733;DHT22;9495;51.210;2.934;2023-02-15T08:06:21;3.70;99.90
18733;DHT22;9495;51.210;2.934;2023-02-15T08:08:49;3.70;99.90
18733;DHT22;9495;51.210;2.934;2023-02-15T08:11:20;3.90;99.90
18733;DHT22;9495;51.210;2.934;2023-02-15T08:14:04;3.90;99.90
18733;DHT22;9495;51.210;2.934;2023-02-15T08:16:35;3.90;99.90
18733;DHT22;9495;51.210;2.934;2023-02-15T08:19:05;3.90;99.90
18733;DHT22;9495;51.210;2.934;2023-02-15T08:21:35;4.00;99.90
18733;DHT22;9495;51.210;2.934;2023-02-15T08:24:05;4.10;99.90
18733;DHT22;9495;51.210;2.934;2023-02-15T08:26:34;4.10;99.90
18733;DHT22;9495;51.210;2.934;2023-02-15T08:29:05;4.10;99.90
18733;DHT22;9495;51.210;2.934;2023-02-15T08:31:34;4.10;99.90
18733;DHT22;9495;51.210;2.934;2023-02-15T08:34:04;4.10;99.90
18733;DHT22;9495;51.210;2.934;2023-02-15T08:36:33;4.20;99.90
18733;DHT22;9495;51.210;2.934;2023-02-15T08:39:03;4.30;99.90
18733;DHT22;9495;51.210;2.934;2023-02-15T08:41:33;4.20;99.90
18733;DHT22;9495;51.210;2.934;2023-02-15T08:44:05;4.30;99.90
18733;DHT22;9495;51.210;2.934;2023-02-15T08:46:35;4.30;99.90
18733;DHT22;9495;51.210;2.934;2023-02-15T08:49:04;4.30;99.90
18733;DHT22;9495;51.210;2.934;2023-02-15T08:51:34;4.40;99.90
18733;DHT22;9495;51.210;2.934;2023-02-15T08:54:04;4.40;99.90
18733;DHT22;9495;51.210;2.934;2023-02-15T08:56:34;4.50;99.90
18733;DHT22;9495;51.210;2.934;2023-02-15T08:59:05;4.60;99.90
18733;DHT22;9495;51.210;2.934;2023-02-15T09:01:34;4.60;99.90
18733;DHT22;9495;51.210;2.934;2023-02-15T09:04:04;4.70;99.90
18733;DHT22;9495;51.210;2.934;2023-02-15T09:06:36;4.80;99.90
18733;DHT22;9495;51.210;2.934;2023-02-15T09:09:05;4.90;99.90
18733;DHT22;9495;51.210;2.934;2023-02-15T09:11:36;5.10;99.90
18733;DHT22;9495;51.210;2.934;2023-02-15T09:14:07;5.80;99.90
18733;DHT22;9495;51.210;2.934;2023-02-15T09:16:37;6.10;99.90
18733;DHT22;9495;51.210;2.934;2023-02-15T09:19:06;6.60;99.90
18733;DHT22;9495;51.210;2.934;2023-02-15T09:21:37;6.70;99.90
18733;DHT22;9495;51.210;2.934;2023-02-15T09:24:07;6.90;99.90
18733;DHT22;9495;51.210;2.934;2023-02-15T09:26:37;6.90;99.90
18733;DHT22;9495;51.210;2.934;2023-02-15T09:29:09;6.50;99.90
18733;DHT22;9495;51.210;2.934;2023-02-15T09:31:39;6.70;99.90
18733;DHT22;9495;51.210;2.934;2023-02-15T09:34:08;6.60;99.90
18733;DHT22;9495;51.210;2.934;2023-02-15T09:36:38;6.40;99.90
18733;DHT22;9495;51.210;2.934;2023-02-15T09:39:10;6.70;99.90
18733;DHT22;9495;51.210;2.934;2023-02-15T09:42:04;7.30;99.90
18733;DHT22;9495;51.210;2.934;2023-02-15T09:45:02;7.30;99.90
18733;DHT22;9495;51.210;2.934;2023-02-15T09:47:43;6.90;99.90
18733;DHT22;9495;51.210;2.934;2023-02-15T09:50:22;7.60;99.90
18733;DHT22;9495;51.210;2.934;2023-02-15T09:53:02;7.60;99.90
18733;DHT22;9495;51.210;2.934;2023-02-15T09:55:43;7.60;99.90
18733;DHT22;9495;51.210;2.934;2023-02-15T09:58:21;8.50;99.90
18733;DHT22;9495;51.210;2.934;2023-02-15T10:00:59;7.80;99.90
18733;DHT22;9495;51.210;2.934;2023-02-15T10:03:47;7.80;99.90
18733;DHT22;9495;51.210;2.934;2023-02-15T10:06:28;7.60;99.90
18733;DHT22;9495;51.210;2.934;2023-02-15T10:09:06;8.20;99.90
18733;DHT22;9495;51.210;2.934;2023-02-15T10:11:49;8.70;99.90
18733;DHT22;9495;51.210;2.934;2023-02-15T10:14:35;9.10;99.90
18733;DHT22;9495;51.210;2.934;2023-02-15T10:17:21;9.20;99.90
18733;DHT22;9495;51.210;2.934;2023-02-15T10:19:57;9.80;99.90
18733;DHT22;9495;51.210;2.934;2023-02-15T10:22:40;9.30;99.90
18733;DHT22;9495;51.210;2.934;2023-02-15T10:25:28;9.40;99.90
18733;DHT22;9495;51.210;2.934;2023-02-15T10:28:04;9.10;99.90
18733;DHT22;9495;51.210;2.934;2023-02-15T10:30:42;9.70;99.90
18733;DHT22;9495;51.210;2.934;2023-02-15T10:33:24;10.40;99.90
18733;DHT22;9495;51.210;2.934;2023-02-15T10:36:04;9.60;99.90
18733;DHT22;9495;51.210;2.934;2023-02-15T10:38:40;10.70;99.90
18733;DHT22;9495;51.210;2.934;2023-02-15T10:41:22;11.40;99.90
18733;DHT22;9495;51.210;2.934;2023-02-15T10:44:04;10.20;99.90
18733;DHT22;9495;51.210;2.934;2023-02-15T10:46:47;10.30;99.90
18733;DHT22;9495;51.210;2.934;2023-02-15T10:49:31;10.60;99.90
18733;DHT22;9495;51.210;2.934;2023-02-15T10:52:15;11.30;99.90
18733;DHT22;9495;51.210;2.934;2023-02-15T10:54:48;11.80;99.90
18733;DHT22;9495;51.210;2.934;2023-02-15T10:57:24;11.50;99.90
18733;DHT22;9495;51.210;2.934;2023-02-15T11:00:05;12.80;99.90
18733;DHT22;9495;51.210;2.934;2023-02-15T11:02:53;12.40;99.90
18733;DHT22;9495;51.210;2.934;2023-02-15T11:05:38;12.70;99.90
18733;DHT22;9495;51.210;2.934;2023-02-15T11:08:10;12.70;99.90
18733;DHT22;9495;51.210;2.934;2023-02-15T11:10:42;12.60;99.90
18733;DHT22;9495;51.210;2.934;2023-02-15T11:13:14;12.10;99.90
18733;DHT22;9495;51.210;2.934;2023-02-15T11:15:47;11.50;99.90
18733;DHT22;9495;51.210;2.934;2023-02-15T11:18:26;10.50;99.90
18733;DHT22;9495;51.210;2.934;2023-02-15T11:21:01;10.70;99.90
18733;DHT22;9495;51.210;2.934;2023-02-15T11:23:32;10.80;99.90
18733;DHT22;9495;51.210;2.934;2023-02-15T11:26:09;10.50;99.90
18733;DHT22;9495;51.210;2.934;2023-02-15T11:28:43;10.40;99.90
18733;DHT22;9495;51.210;2.934;2023-02-15T11:31:17;10.40;99.90
18733;DHT22;9495;51.210;2.934;2023-02-15T11:33:49;10.10;99.90
18733;DHT22;9495;51.210;2.934;2023-02-15T11:36:22;10.40;99.90
18733;DHT22;9495;51.210;2.934;2023-02-15T11:38:58;10.50;99.90
18733;DHT22;9495;51.210;2.934;2023-02-15T11:41:33;10.70;99.90
18733;DHT22;9495;51.210;2.934;2023-02-15T11:44:05;11.00;99.90
18733;DHT22;9495;51.210;2.934;2023-02-15T11:46:36;11.00;99.90
18733;DHT22;9495;51.210;2.934;2023-02-15T11:49:10;10.90;99.90
18733;DHT22;9495;51.210;2.934;2023-02-15T11:51:48;11.10;99.90
18733;DHT22;9495;51.210;2.934;2023-02-15T11:54:18;10.70;99.90
18733;DHT22;9495;51.210;2.934;2023-02-15T11:56:48;10.30;99.90
18733;DHT22;9495;51.210;2.934;2023-02-15T11:59:21;10.70;99.90
18733;DHT22;9495;51.210;2.934;2023-02-15T12:01:53;10.80;99.90
18733;DHT22;9495;51.210;2.934;2023-02-15T12:04:23;10.60;99.90
18733;DHT22;9495;51.210;2.934;2023-02-15T12:06:58;10.80;99.90
18733;DHT22;9495;51.210;2.934;2023-02-15T12:09:33;10.80;99.90
18733;DHT22;9495;51.210;2.934;2023-02-15T12:12:22;10.60;99.90
18733;DHT22;9495;51.210;2.934;2023-02-15T12:14:52;10.70;99.90
18733;DHT22;9495;51.210;2.934;2023-02-15T12:17:23;10.90;99.90
18733;DHT22;9495;51.210;2.934;2023-02-15T12:19:52;10.80;99.90
18733;DHT22;9495;51.210;2.934;2023-02-15T12:22:26;10.70;99.90
18733;DHT22;9495;51.210;2.934;2023-02-15T12:24:56;10.70;99.90
18733;DHT22;9495;51.210;2.934;2023-02-15T12:27:27;10.70;99.90
18733;DHT22;9495;51.210;2.934;2023-02-15T12:29:59;10.90;99.90
18733;DHT22;9495;51.210;2.934;2023-02-15T12:32:33;11.00;99.90
18733;DHT22;9495;51.210;2.934;2023-02-15T12:35:09;11.10;99.90
18733;DHT22;9495;51.210;2.934;2023-02-15T12:37:52;11.00;99.90
18733;DHT22;9495;51.210;2.934;2023-02-15T12:40:24;11.30;99.90
18733;DHT22;9495;51.210;2.934;2023-02-15T12:42:57;11.60;99.90
18733;DHT22;9495;51.210;2.934;2023-02-15T12:45:27;11.40;99.90
18733;DHT22;9495;51.210;2.934;2023-02-15T12:48:09;11.60;99.90
18733;DHT22;9495;51.210;2.934;2023-02-15T12:50:38;12.30;99.90
18733;DHT22;9495;51.210;2.934;2023-02-15T12:53:15;12.20;99.90
18733;DHT22;9495;51.210;2.934;2023-02-15T12:55:53;11.70;99.90
18733;DHT22;9495;51.210;2.934;2023-02-15T12:58:23;11.80;99.90
18733;DHT22;9495;51.210;2.934;2023-02-15T13:01:10;11.80;99.90
18733;DHT22;9495;51.210;2.934;2023-02-15T13:03:53;11.80;99.90
18733;DHT22;9495;51.210;2.934;2023-02-15T13:06:23;11.80;99.90
18733;DHT22;9495;51.210;2.934;2023-02-15T13:08:54;11.80;99.90
18733;DHT22;9495;51.210;2.934;2023-02-15T13:11:26;11.70;99.90
18733;DHT22;9495;51.210;2.934;2023-02-15T13:13:59;11.90;99.90
18733;DHT22;9495;51.210;2.934;2023-02-15T13:16:31;11.60;99.90
18733;DHT22;9495;51.210;2.934;2023-02-15T13:19:06;11.60;99.90
18733;DHT22;9495;51.210;2.934;2023-02-15T13:21:37;11.60;99.90
18733;DHT22;9495;51.210;2.934;2023-02-15T13:24:17;11.80;99.90
18733;DHT22;9495;51.210;2.934;2023-02-15T13:26:47;12.00;99.90
18733;DHT22;9495;51.210;2.934;2023-02-15T13:29:21;11.70;99.90
18733;DHT22;9495;51.210;2.934;2023-02-15T13:31:51;11.70;99.90
18733;DHT22;9495;51.210;2.934;2023-02-15T13:34:24;11.80;99.90
18733;DHT22;9495;51.210;2.934;2023-02-15T13:37:01;11.80;99.90
18733;DHT22;9495;51.210;2.934;2023-02-15T13:39:37;12.50;99.90
18733;DHT22;9495;51.210;2.934;2023-02-15T13:42:18;12.40;99.90
18733;DHT22;9495;51.210;2.934;2023-02-15T13:45:01;12.40;99.90
18733;DHT22;9495;51.210;2.934;2023-02-15T13:47:36;12.10;99.90
18733;DHT22;9495;51.210;2.934;2023-02-15T13:50:43;12.00;99.90
18733;DHT22;9495;51.210;2.934;2023-02-15T13:53:28;12.80;99.90
18733;DHT22;9495;51.210;2.934;2023-02-15T13:56:07;12.90;99.90
18733;DHT22;9495;51.210;2.934;2023-02-15T14:01:45;13.10;99.90
18733;DHT22;9495;51.210;2.934;2023-02-15T14:04:52;13.00;99.90
18733;DHT22;9495;51.210;2.934;2023-02-15T14:07:33;13.00;99.90
18733;DHT22;9495;51.210;2.934;2023-02-15T14:10:29;12.70;99.90
18733;DHT22;9495;51.210;2.934;2023-02-15T14:13:28;12.50;99.90
18733;DHT22;9495;51.210;2.934;2023-02-15T14:16:04;12.60;99.90
18733;DHT22;9495;51.210;2.934;2023-02-15T14:18:38;12.40;99.90
18733;DHT22;9495;51.210;2.934;2023-02-15T14:21:13;12.40;99.90
18733;DHT22;9495;51.210;2.934;2023-02-15T14:23:54;12.70;99.90
18733;DHT22;9495;51.210;2.934;2023-02-15T14:26:33;12.50;99.90
18733;DHT22;9495;51.210;2.934;2023-02-15T14:29:20;12.80;99.90
18733;DHT22;9495;51.210;2.934;2023-02-15T14:31:54;12.60;99.90
18733;DHT22;9495;51.210;2.934;2023-02-15T14:34:25;12.90;99.90
18733;DHT22;9495;51.210;2.934;2023-02-15T14:36:56;12.70;99.90
18733;DHT22;9495;51.210;2.934;2023-02-15T14:39:31;13.50;99.90
18733;DHT22;9495;51.210;2.934;2023-02-15T14:42:25;13.00;99.90
18733;DHT22;9495;51.210;2.934;2023-02-15T14:45:01;12.90;99.90
18733;DHT22;9495;51.210;2.934;2023-02-15T14:47:34;13.00;99.90
18733;DHT22;9495;51.210;2.934;2023-02-15T14:50:36;12.90;99.90
18733;DHT22;9495;51.210;2.934;2023-02-15T14:53:25;12.90;99.90
18733;DHT22;9495;51.210;2.934;2023-02-15T14:56:21;12.90;99.90
18733;DHT22;9495;51.210;2.934;2023-02-15T14:58:58;12.70;99.90
18733;DHT22;9495;51.210;2.934;2023-02-15T15:01:31;12.80;99.90
18733;DHT22;9495;51.210;2.934;2023-02-15T15:04:03;13.30;99.90
18733;DHT22;9495;51.210;2.934;2023-02-15T15:06:34;13.40;99.90
18733;DHT22;9495;51.210;2.934;2023-02-15T15:09:11;13.10;99.90
18733;DHT22;9495;51.210;2.934;2023-02-15T15:11:43;13.10;99.90
18733;DHT22;9495;51.210;2.934;2023-02-15T15:14:37;13.50;99.90
18733;DHT22;9495;51.210;2.934;2023-02-15T15:17:10;13.50;99.90
18733;DHT22;9495;51.210;2.934;2023-02-15T15:20:10;13.50;99.90
18733;DHT22;9495;51.210;2.934;2023-02-15T15:22:42;13.80;99.90
18733;DHT22;9495;51.210;2.934;2023-02-15T15:25:39;13.50;99.90
18733;DHT22;9495;51.210;2.934;2023-02-15T15:28:02;13.90;99.90
18733;DHT22;9495;51.210;2.934;2023-02-15T15:30:59;13.80;99.90
18733;DHT22;9495;51.210;2.934;2023-02-15T15:37:04;13.80;99.90
18733;DHT22;9495;51.210;2.934;2023-02-15T15:40:11;14.00;99.90
18733;DHT22;9495;51.210;2.934;2023-02-15T15:42:55;13.60;99.90
18733;DHT22;9495;51.210;2.934;2023-02-15T15:48:30;13.60;99.90
18733;DHT22;9495;51.210;2.934;2023-02-15T15:51:04;13.60;99.90
18733;DHT22;9495;51.210;2.934;2023-02-15T15:53:40;13.30;99.90
18733;DHT22;9495;51.210;2.934;2023-02-15T15:56:13;13.40;99.90
18733;DHT22;9495;51.210;2.934;2023-02-15T15:58:46;13.20;99.90
18733;DHT22;9495;51.210;2.934;2023-02-15T16:01:15;13.60;99.90
18733;DHT22;9495;51.210;2.934;2023-02-15T16:03:50;14.20;99.90
18733;DHT22;9495;51.210;2.934;2023-02-15T16:06:30;13.50;99.90
18733;DHT22;9495;51.210;2.934;2023-02-15T16:09:13;14.10;99.90
18733;DHT22;9495;51.210;2.934;2023-02-15T16:11:41;14.60;99.90
18733;DHT22;9495;51.210;2.934;2023-02-15T16:14:13;13.50;99.90
18733;DHT22;9495;51.210;2.934;2023-02-15T16:16:48;13.70;99.90
18733;DHT22;9495;51.210;2.934;2023-02-15T16:19:25;13.40;99.90
18733;DHT22;9495;51.210;2.934;2023-02-15T16:21:55;13.10;99.90
18733;DHT22;9495;51.210;2.934;2023-02-15T16:27:37;13.10;99.90
18733;DHT22;9495;51.210;2.934;2023-02-15T16:30:24;13.30;99.90
18733;DHT22;9495;51.210;2.934;2023-02-15T16:32:54;13.10;99.90
18733;DHT22;9495;51.210;2.934;2023-02-15T16:35:23;13.20;99.90
18733;DHT22;9495;51.210;2.934;2023-02-15T16:37:52;12.80;99.90
18733;DHT22;9495;51.210;2.934;2023-02-15T16:40:37;12.70;99.90
18733;DHT22;9495;51.210;2.934;2023-02-15T16:43:13;12.60;99.90
18733;DHT22;9495;51.210;2.934;2023-02-15T16:45:43;12.40;99.90
18733;DHT22;9495;51.210;2.934;2023-02-15T16:48:15;12.30;99.90
18733;DHT22;9495;51.210;2.934;2023-02-15T16:50:50;12.20;99.90
18733;DHT22;9495;51.210;2.934;2023-02-15T16:53:21;12.20;99.90
18733;DHT22;9495;51.210;2.934;2023-02-15T16:55:54;12.30;99.90